sensor_id;sensor_type;location;lat;lon;timestamp;P1;durP1;ratioP1;P2;durP2;ratioP2
20511;SDS011;10414;52.074;5.126;2022-11-20T00:02:22;23.20;;;9.90;;
20511;SDS011;10414;52.074;5.126;2022-11-20T00:04:50;19.75;;;8.95;;
20511;SDS011;10414;52.074;5.126;2022-11-20T00:07:16;21.25;;;9.10;;
20511;SDS011;10414;52.074;5.126;2022-11-20T00:09:47;19.45;;;8.10;;
20511;SDS011;10414;52.074;5.126;2022-11-20T00:12:14;22.58;;;9.40;;
20511;SDS011;10414;52.074;5.126;2022-11-20T00:14:41;16.63;;;8.70;;
20511;SDS011;10414;52.074;5.126;2022-11-20T00:17:10;18.88;;;9.45;;
20511;SDS011;10414;52.074;5.126;2022-11-20T00:19:37;21.60;;;9.18;;
20511;SDS011;10414;52.074;5.126;2022-11-20T00:22:06;16.58;;;8.20;;
20511;SDS011;10414;52.074;5.126;2022-11-20T00:24:33;20.83;;;9.23;;
20511;SDS011;10414;52.074;5.126;2022-11-20T00:27:05;17.27;;;8.65;;
20511;SDS011;10414;52.074;5.126;2022-11-20T00:29:32;20.08;;;9.27;;
20511;SDS011;10414;52.074;5.126;2022-11-20T00:31:58;20.73;;;9.07;;
20511;SDS011;10414;52.074;5.126;2022-11-20T00:34:25;20.08;;;9.05;;
20511;SDS011;10414;52.074;5.126;2022-11-20T00:36:52;20.38;;;8.63;;
20511;SDS011;10414;52.074;5.126;2022-11-20T00:39:20;23.25;;;9.70;;
20511;SDS011;10414;52.074;5.126;2022-11-20T00:41:47;21.50;;;9.68;;
20511;SDS011;10414;52.074;5.126;2022-11-20T00:44:18;17.95;;;8.65;;
20511;SDS011;10414;52.074;5.126;2022-11-20T00:46:45;18.92;;;8.88;;
20511;SDS011;10414;52.074;5.126;2022-11-20T00:49:11;21.20;;;9.30;;
20511;SDS011;10414;52.074;5.126;2022-11-20T00:51:38;18.95;;;8.88;;
20511;SDS011;10414;52.074;5.126;2022-11-20T00:54:10;20.73;;;9.63;;
20511;SDS011;10414;52.074;5.126;2022-11-20T00:56:37;18.23;;;8.73;;
20511;SDS011;10414;52.074;5.126;2022-11-20T00:59:03;18.20;;;8.48;;
20511;SDS011;10414;52.074;5.126;2022-11-20T01:01:36;21.33;;;9.30;;
20511;SDS011;10414;52.074;5.126;2022-11-20T01:04:03;18.13;;;8.80;;
20511;SDS011;10414;52.074;5.126;2022-11-20T01:06:35;24.08;;;9.50;;
20511;SDS011;10414;52.074;5.126;2022-11-20T01:09:04;20.15;;;8.73;;
20511;SDS011;10414;52.074;5.126;2022-11-20T01:11:36;17.58;;;8.55;;
20511;SDS011;10414;52.074;5.126;2022-11-20T01:14:06;21.00;;;9.60;;
20511;SDS011;10414;52.074;5.126;2022-11-20T01:16:36;20.77;;;8.82;;
20511;SDS011;10414;52.074;5.126;2022-11-20T01:19:04;18.23;;;8.50;;
20511;SDS011;10414;52.074;5.126;2022-11-20T01:21:33;19.77;;;8.82;;
20511;SDS011;10414;52.074;5.126;2022-11-20T01:24:04;17.95;;;8.98;;
20511;SDS011;10414;52.074;5.126;2022-11-20T01:26:33;19.80;;;8.85;;
20511;SDS011;10414;52.074;5.126;2022-11-20T01:29:02;19.60;;;8.60;;
20511;SDS011;10414;52.074;5.126;2022-11-20T01:31:39;18.77;;;8.85;;
20511;SDS011;10414;52.074;5.126;2022-11-20T01:34:08;23.05;;;9.13;;
20511;SDS011;10414;52.074;5.126;2022-11-20T01:36:40;18.40;;;8.25;;
20511;SDS011;10414;52.074;5.126;2022-11-20T01:39:09;18.15;;;9.13;;
20511;SDS011;10414;52.074;5.126;2022-11-20T01:41:38;18.75;;;8.32;;
20511;SDS011;10414;52.074;5.126;2022-11-20T01:47:12;18.73;;;8.15;;
20511;SDS011;10414;52.074;5.126;2022-11-20T01:49:42;19.83;;;8.40;;
20511;SDS011;10414;52.074;5.126;2022-11-20T01:52:14;17.98;;;8.32;;
20511;SDS011;10414;52.074;5.126;2022-11-20T01:54:45;19.08;;;8.82;;
20511;SDS011;10414;52.074;5.126;2022-11-20T01:57:15;20.92;;;9.55;;
20511;SDS011;10414;52.074;5.126;2022-11-20T01:59:49;18.85;;;8.93;;
20511;SDS011;10414;52.074;5.126;2022-11-20T02:02:24;19.95;;;9.02;;
20511;SDS011;10414;52.074;5.126;2022-11-20T02:04:52;23.90;;;9.05;;
20511;SDS011;10414;52.074;5.126;2022-11-20T02:07:26;24.65;;;9.27;;
20511;SDS011;10414;52.074;5.126;2022-11-20T02:09:53;20.08;;;9.25;;
20511;SDS011;10414;52.074;5.126;2022-11-20T02:12:31;23.27;;;9.57;;
20511;SDS011;10414;52.074;5.126;2022-11-20T02:15:18;20.05;;;8.55;;
20511;SDS011;10414;52.074;5.126;2022-11-20T02:17:49;19.75;;;9.57;;
20511;SDS011;10414;52.074;5.126;2022-11-20T02:20:22;20.25;;;8.68;;
20511;SDS011;10414;52.074;5.126;2022-11-20T02:22:50;24.67;;;10.68;;
20511;SDS011;10414;52.074;5.126;2022-11-20T02:25:23;19.48;;;7.78;;
20511;SDS011;10414;52.074;5.126;2022-11-20T02:27:52;18.23;;;9.07;;
20511;SDS011;10414;52.074;5.126;2022-11-20T02:30:23;20.27;;;8.55;;
20511;SDS011;10414;52.074;5.126;2022-11-20T02:32:50;18.55;;;8.10;;
20511;SDS011;10414;52.074;5.126;2022-11-20T02:38:07;19.05;;;8.55;;
20511;SDS011;10414;52.074;5.126;2022-11-20T02:40:36;22.42;;;9.27;;
20511;SDS011;10414;52.074;5.126;2022-11-20T02:43:06;20.40;;;8.63;;
20511;SDS011;10414;52.074;5.126;2022-11-20T02:45:36;19.33;;;8.68;;
20511;SDS011;10414;52.074;5.126;2022-11-20T02:48:03;17.67;;;8.20;;
20511;SDS011;10414;52.074;5.126;2022-11-20T02:50:37;17.35;;;7.93;;
20511;SDS011;10414;52.074;5.126;2022-11-20T02:53:05;18.70;;;8.40;;
20511;SDS011;10414;52.074;5.126;2022-11-20T02:55:32;18.30;;;7.95;;
20511;SDS011;10414;52.074;5.126;2022-11-20T02:58:00;20.40;;;8.80;;
20511;SDS011;10414;52.074;5.126;2022-11-20T03:00:27;21.25;;;8.63;;
20511;SDS011;10414;52.074;5.126;2022-11-20T03:02:54;18.80;;;8.38;;
20511;SDS011;10414;52.074;5.126;2022-11-20T03:05:28;18.10;;;8.52;;
20511;SDS011;10414;52.074;5.126;2022-11-20T03:07:55;19.73;;;8.55;;
20511;SDS011;10414;52.074;5.126;2022-11-20T03:10:22;19.90;;;8.75;;
20511;SDS011;10414;52.074;5.126;2022-11-20T03:12:52;18.10;;;8.35;;
20511;SDS011;10414;52.074;5.126;2022-11-20T03:15:21;20.48;;;8.85;;
20511;SDS011;10414;52.074;5.126;2022-11-20T03:17:57;17.20;;;8.32;;
20511;SDS011;10414;52.074;5.126;2022-11-20T03:20:26;18.45;;;8.63;;
20511;SDS011;10414;52.074;5.126;2022-11-20T03:22:53;16.30;;;7.43;;
20511;SDS011;10414;52.074;5.126;2022-11-20T03:25:20;19.77;;;8.43;;
20511;SDS011;10414;52.074;5.126;2022-11-20T03:27:47;19.13;;;8.48;;
20511;SDS011;10414;52.074;5.126;2022-11-20T03:30:14;17.58;;;8.00;;
20511;SDS011;10414;52.074;5.126;2022-11-20T03:32:42;17.60;;;8.68;;
20511;SDS011;10414;52.074;5.126;2022-11-20T03:35:09;17.58;;;8.57;;
20511;SDS011;10414;52.074;5.126;2022-11-20T03:37:36;19.23;;;8.73;;
20511;SDS011;10414;52.074;5.126;2022-11-20T03:40:03;19.23;;;8.43;;
20511;SDS011;10414;52.074;5.126;2022-11-20T03:42:30;18.73;;;8.73;;
20511;SDS011;10414;52.074;5.126;2022-11-20T03:45:12;18.27;;;8.02;;
20511;SDS011;10414;52.074;5.126;2022-11-20T03:47:50;20.55;;;8.70;;
20511;SDS011;10414;52.074;5.126;2022-11-20T03:50:17;20.73;;;8.63;;
20511;SDS011;10414;52.074;5.126;2022-11-20T03:52:43;19.35;;;8.63;;
20511;SDS011;10414;52.074;5.126;2022-11-20T03:55:10;19.65;;;8.38;;
20511;SDS011;10414;52.074;5.126;2022-11-20T03:57:37;20.42;;;8.80;;
20511;SDS011;10414;52.074;5.126;2022-11-20T04:00:06;17.08;;;8.50;;
20511;SDS011;10414;52.074;5.126;2022-11-20T04:02:33;17.55;;;7.60;;
20511;SDS011;10414;52.074;5.126;2022-11-20T04:05:03;19.50;;;8.25;;
20511;SDS011;10414;52.074;5.126;2022-11-20T04:07:30;21.02;;;8.98;;
20511;SDS011;10414;52.074;5.126;2022-11-20T04:09:59;20.27;;;9.52;;
20511;SDS011;10414;52.074;5.126;2022-11-20T04:12:26;19.17;;;9.25;;
20511;SDS011;10414;52.074;5.126;2022-11-20T04:14:53;19.73;;;9.02;;
20511;SDS011;10414;52.074;5.126;2022-11-20T04:17:22;19.15;;;8.95;;
20511;SDS011;10414;52.074;5.126;2022-11-20T04:19:49;19.25;;;9.23;;
20511;SDS011;10414;52.074;5.126;2022-11-20T04:22:17;19.40;;;8.70;;
20511;SDS011;10414;52.074;5.126;2022-11-20T04:24:48;18.48;;;8.10;;
20511;SDS011;10414;52.074;5.126;2022-11-20T04:27:18;19.20;;;8.63;;
20511;SDS011;10414;52.074;5.126;2022-11-20T04:29:46;18.08;;;9.15;;
20511;SDS011;10414;52.074;5.126;2022-11-20T04:32:13;17.75;;;8.13;;
20511;SDS011;10414;52.074;5.126;2022-11-20T04:34:46;19.88;;;8.88;;
20511;SDS011;10414;52.074;5.126;2022-11-20T04:37:16;21.92;;;8.50;;
20511;SDS011;10414;52.074;5.126;2022-11-20T04:39:43;20.20;;;9.05;;
20511;SDS011;10414;52.074;5.126;2022-11-20T04:42:10;17.40;;;8.32;;
20511;SDS011;10414;52.074;5.126;2022-11-20T04:44:55;17.48;;;8.68;;
20511;SDS011;10414;52.074;5.126;2022-11-20T04:47:22;22.45;;;9.00;;
20511;SDS011;10414;52.074;5.126;2022-11-20T04:49:49;21.05;;;9.45;;
20511;SDS011;10414;52.074;5.126;2022-11-20T04:52:17;19.80;;;8.57;;
20511;SDS011;10414;52.074;5.126;2022-11-20T04:54:44;20.42;;;9.43;;
20511;SDS011;10414;52.074;5.126;2022-11-20T04:57:12;22.13;;;9.07;;
20511;SDS011;10414;52.074;5.126;2022-11-20T04:59:40;15.43;;;7.45;;
20511;SDS011;10414;52.074;5.126;2022-11-20T05:02:07;20.83;;;9.00;;
20511;SDS011;10414;52.074;5.126;2022-11-20T05:04:36;20.35;;;9.88;;
20511;SDS011;10414;52.074;5.126;2022-11-20T05:07:02;18.10;;;8.35;;
20511;SDS011;10414;52.074;5.126;2022-11-20T05:09:31;16.95;;;8.27;;
20511;SDS011;10414;52.074;5.126;2022-11-20T05:11:57;22.85;;;9.23;;
20511;SDS011;10414;52.074;5.126;2022-11-20T05:14:24;20.67;;;9.40;;
20511;SDS011;10414;52.074;5.126;2022-11-20T05:16:51;19.75;;;9.77;;
20511;SDS011;10414;52.074;5.126;2022-11-20T05:19:20;22.80;;;9.40;;
20511;SDS011;10414;52.074;5.126;2022-11-20T05:21:47;19.58;;;8.90;;
20511;SDS011;10414;52.074;5.126;2022-11-20T05:24:13;18.50;;;8.50;;
20511;SDS011;10414;52.074;5.126;2022-11-20T05:26:42;19.38;;;8.55;;
20511;SDS011;10414;52.074;5.126;2022-11-20T05:29:09;19.98;;;9.38;;
20511;SDS011;10414;52.074;5.126;2022-11-20T05:31:38;18.73;;;8.63;;
20511;SDS011;10414;52.074;5.126;2022-11-20T05:34:06;20.25;;;9.82;;
20511;SDS011;10414;52.074;5.126;2022-11-20T05:36:36;18.60;;;8.55;;
20511;SDS011;10414;52.074;5.126;2022-11-20T05:39:06;20.98;;;9.00;;
20511;SDS011;10414;52.074;5.126;2022-11-20T05:41:32;20.45;;;9.43;;
20511;SDS011;10414;52.074;5.126;2022-11-20T05:44:01;19.10;;;9.02;;
20511;SDS011;10414;52.074;5.126;2022-11-20T05:46:30;20.45;;;9.35;;
20511;SDS011;10414;52.074;5.126;2022-11-20T05:48:56;19.58;;;9.38;;
20511;SDS011;10414;52.074;5.126;2022-11-20T05:51:24;20.33;;;8.77;;
20511;SDS011;10414;52.074;5.126;2022-11-20T05:53:51;20.27;;;9.02;;
20511;SDS011;10414;52.074;5.126;2022-11-20T05:56:19;19.48;;;9.13;;
20511;SDS011;10414;52.074;5.126;2022-11-20T05:58:46;16.40;;;8.10;;
20511;SDS011;10414;52.074;5.126;2022-11-20T06:01:17;17.48;;;9.20;;
20511;SDS011;10414;52.074;5.126;2022-11-20T06:03:46;19.98;;;8.70;;
20511;SDS011;10414;52.074;5.126;2022-11-20T06:06:15;19.27;;;9.02;;
20511;SDS011;10414;52.074;5.126;2022-11-20T06:08:48;19.33;;;9.20;;
20511;SDS011;10414;52.074;5.126;2022-11-20T06:11:15;21.77;;;9.57;;
20511;SDS011;10414;52.074;5.126;2022-11-20T06:13:43;19.58;;;9.25;;
20511;SDS011;10414;52.074;5.126;2022-11-20T06:16:13;17.10;;;7.93;;
20511;SDS011;10414;52.074;5.126;2022-11-20T06:18:44;23.50;;;9.48;;
20511;SDS011;10414;52.074;5.126;2022-11-20T06:21:14;22.58;;;8.88;;
20511;SDS011;10414;52.074;5.126;2022-11-20T06:23:44;20.08;;;9.40;;
20511;SDS011;10414;52.074;5.126;2022-11-20T06:26:12;22.92;;;10.05;;
20511;SDS011;10414;52.074;5.126;2022-11-20T06:28:40;20.63;;;9.52;;
20511;SDS011;10414;52.074;5.126;2022-11-20T06:31:07;21.92;;;10.10;;
20511;SDS011;10414;52.074;5.126;2022-11-20T06:33:38;21.08;;;9.10;;
20511;SDS011;10414;52.074;5.126;2022-11-20T06:36:05;21.88;;;9.23;;
20511;SDS011;10414;52.074;5.126;2022-11-20T06:38:33;22.02;;;9.57;;
20511;SDS011;10414;52.074;5.126;2022-11-20T06:41:00;20.25;;;8.32;;
20511;SDS011;10414;52.074;5.126;2022-11-20T06:43:29;20.13;;;9.30;;
20511;SDS011;10414;52.074;5.126;2022-11-20T06:46:02;21.25;;;9.45;;
20511;SDS011;10414;52.074;5.126;2022-11-20T06:48:30;17.55;;;8.43;;
20511;SDS011;10414;52.074;5.126;2022-11-20T06:51:03;21.92;;;9.98;;
20511;SDS011;10414;52.074;5.126;2022-11-20T06:53:31;20.52;;;9.18;;
20511;SDS011;10414;52.074;5.126;2022-11-20T06:55:58;18.90;;;8.38;;
20511;SDS011;10414;52.074;5.126;2022-11-20T06:58:28;23.80;;;10.35;;
20511;SDS011;10414;52.074;5.126;2022-11-20T07:00:57;23.83;;;10.13;;
20511;SDS011;10414;52.074;5.126;2022-11-20T07:03:27;25.83;;;10.23;;
20511;SDS011;10414;52.074;5.126;2022-11-20T07:05:54;23.85;;;9.98;;
20511;SDS011;10414;52.074;5.126;2022-11-20T07:08:23;26.45;;;9.68;;
20511;SDS011;10414;52.074;5.126;2022-11-20T07:10:56;23.45;;;10.25;;
20511;SDS011;10414;52.074;5.126;2022-11-20T07:13:24;21.33;;;9.93;;
20511;SDS011;10414;52.074;5.126;2022-11-20T07:15:54;20.58;;;8.73;;
20511;SDS011;10414;52.074;5.126;2022-11-20T07:18:25;21.33;;;9.77;;
20511;SDS011;10414;52.074;5.126;2022-11-20T07:20:54;21.77;;;9.10;;
20511;SDS011;10414;52.074;5.126;2022-11-20T07:23:21;21.17;;;9.40;;
20511;SDS011;10414;52.074;5.126;2022-11-20T07:25:49;24.17;;;9.43;;
20511;SDS011;10414;52.074;5.126;2022-11-20T07:28:16;23.15;;;10.25;;
20511;SDS011;10414;52.074;5.126;2022-11-20T07:30:43;21.55;;;10.07;;
20511;SDS011;10414;52.074;5.126;2022-11-20T07:33:16;23.25;;;9.73;;
20511;SDS011;10414;52.074;5.126;2022-11-20T07:35:44;25.25;;;10.82;;
20511;SDS011;10414;52.074;5.126;2022-11-20T07:38:11;21.00;;;9.68;;
20511;SDS011;10414;52.074;5.126;2022-11-20T07:40:41;21.10;;;9.73;;
20511;SDS011;10414;52.074;5.126;2022-11-20T07:43:15;21.73;;;9.40;;
20511;SDS011;10414;52.074;5.126;2022-11-20T07:45:42;25.52;;;10.60;;
20511;SDS011;10414;52.074;5.126;2022-11-20T07:48:08;26.27;;;11.15;;
20511;SDS011;10414;52.074;5.126;2022-11-20T07:50:35;26.50;;;10.68;;
20511;SDS011;10414;52.074;5.126;2022-11-20T07:53:05;20.05;;;8.73;;
20511;SDS011;10414;52.074;5.126;2022-11-20T07:55:32;23.17;;;10.43;;
20511;SDS011;10414;52.074;5.126;2022-11-20T07:57:59;22.65;;;10.73;;
20511;SDS011;10414;52.074;5.126;2022-11-20T08:00:28;22.15;;;11.00;;
20511;SDS011;10414;52.074;5.126;2022-11-20T08:02:55;21.90;;;9.85;;
20511;SDS011;10414;52.074;5.126;2022-11-20T08:05:23;22.70;;;10.50;;
20511;SDS011;10414;52.074;5.126;2022-11-20T08:07:50;22.92;;;10.75;;
20511;SDS011;10414;52.074;5.126;2022-11-20T08:10:17;21.58;;;9.88;;
20511;SDS011;10414;52.074;5.126;2022-11-20T08:12:45;22.67;;;9.43;;
20511;SDS011;10414;52.074;5.126;2022-11-20T08:15:31;20.70;;;8.60;;
20511;SDS011;10414;52.074;5.126;2022-11-20T08:17:59;20.90;;;9.68;;
20511;SDS011;10414;52.074;5.126;2022-11-20T08:20:28;20.63;;;9.57;;
20511;SDS011;10414;52.074;5.126;2022-11-20T08:22:58;21.60;;;9.73;;
20511;SDS011;10414;52.074;5.126;2022-11-20T08:27:56;21.23;;;9.18;;
20511;SDS011;10414;52.074;5.126;2022-11-20T08:30:24;22.13;;;10.00;;
20511;SDS011;10414;52.074;5.126;2022-11-20T08:32:53;21.58;;;9.23;;
20511;SDS011;10414;52.074;5.126;2022-11-20T08:35:23;24.08;;;10.27;;
20511;SDS011;10414;52.074;5.126;2022-11-20T08:37:50;19.30;;;9.35;;
20511;SDS011;10414;52.074;5.126;2022-11-20T08:40:17;20.30;;;10.27;;
20511;SDS011;10414;52.074;5.126;2022-11-20T08:42:47;21.77;;;10.40;;
20511;SDS011;10414;52.074;5.126;2022-11-20T08:45:14;22.95;;;10.48;;
20511;SDS011;10414;52.074;5.126;2022-11-20T08:50:13;23.02;;;10.05;;
20511;SDS011;10414;52.074;5.126;2022-11-20T08:52:41;20.70;;;10.17;;
20511;SDS011;10414;52.074;5.126;2022-11-20T08:55:09;20.40;;;9.65;;
20511;SDS011;10414;52.074;5.126;2022-11-20T08:57:38;20.87;;;10.03;;
20511;SDS011;10414;52.074;5.126;2022-11-20T09:00:06;23.20;;;11.05;;
20511;SDS011;10414;52.074;5.126;2022-11-20T09:02:36;23.00;;;9.65;;
20511;SDS011;10414;52.074;5.126;2022-11-20T09:05:03;23.67;;;11.18;;
20511;SDS011;10414;52.074;5.126;2022-11-20T09:07:32;20.65;;;10.07;;
20511;SDS011;10414;52.074;5.126;2022-11-20T09:10:01;22.25;;;10.32;;
20511;SDS011;10414;52.074;5.126;2022-11-20T09:12:28;24.83;;;10.80;;
20511;SDS011;10414;52.074;5.126;2022-11-20T09:14:55;24.90;;;11.05;;
20511;SDS011;10414;52.074;5.126;2022-11-20T09:17:22;25.33;;;11.90;;
20511;SDS011;10414;52.074;5.126;2022-11-20T09:19:49;26.90;;;11.50;;
20511;SDS011;10414;52.074;5.126;2022-11-20T09:22:18;25.70;;;11.07;;
20511;SDS011;10414;52.074;5.126;2022-11-20T09:24:46;22.10;;;11.20;;
20511;SDS011;10414;52.074;5.126;2022-11-20T09:27:14;24.50;;;10.82;;
20511;SDS011;10414;52.074;5.126;2022-11-20T09:32:11;20.05;;;9.88;;
20511;SDS011;10414;52.074;5.126;2022-11-20T09:34:38;25.90;;;11.15;;
20511;SDS011;10414;52.074;5.126;2022-11-20T09:37:07;22.35;;;10.85;;
20511;SDS011;10414;52.074;5.126;2022-11-20T09:39:34;22.70;;;10.60;;
20511;SDS011;10414;52.074;5.126;2022-11-20T09:44:59;22.85;;;11.15;;
20511;SDS011;10414;52.074;5.126;2022-11-20T09:47:39;21.52;;;11.02;;
20511;SDS011;10414;52.074;5.126;2022-11-20T09:50:19;20.50;;;10.05;;
20511;SDS011;10414;52.074;5.126;2022-11-20T09:52:57;22.30;;;10.52;;
20511;SDS011;10414;52.074;5.126;2022-11-20T09:55:36;20.40;;;10.93;;
20511;SDS011;10414;52.074;5.126;2022-11-20T09:58:07;23.30;;;11.48;;
20511;SDS011;10414;52.074;5.126;2022-11-20T10:00:39;25.48;;;11.50;;
20511;SDS011;10414;52.074;5.126;2022-11-20T10:03:11;23.25;;;10.55;;
20511;SDS011;10414;52.074;5.126;2022-11-20T10:05:43;22.98;;;10.88;;
20511;SDS011;10414;52.074;5.126;2022-11-20T10:08:15;23.58;;;12.13;;
20511;SDS011;10414;52.074;5.126;2022-11-20T10:10:49;24.83;;;11.63;;
20511;SDS011;10414;52.074;5.126;2022-11-20T10:13:34;23.85;;;11.68;;
20511;SDS011;10414;52.074;5.126;2022-11-20T10:16:17;25.67;;;11.65;;
20511;SDS011;10414;52.074;5.126;2022-11-20T10:18:58;24.20;;;12.20;;
20511;SDS011;10414;52.074;5.126;2022-11-20T10:21:35;26.88;;;12.02;;
20511;SDS011;10414;52.074;5.126;2022-11-20T10:24:24;22.60;;;10.68;;
20511;SDS011;10414;52.074;5.126;2022-11-20T10:27:08;25.55;;;11.63;;
20511;SDS011;10414;52.074;5.126;2022-11-20T10:29:54;22.95;;;11.27;;
20511;SDS011;10414;52.074;5.126;2022-11-20T10:32:28;23.25;;;12.05;;
20511;SDS011;10414;52.074;5.126;2022-11-20T10:35:00;23.80;;;12.00;;
20511;SDS011;10414;52.074;5.126;2022-11-20T10:37:31;22.45;;;12.27;;
20511;SDS011;10414;52.074;5.126;2022-11-20T10:40:01;24.38;;;11.82;;
20511;SDS011;10414;52.074;5.126;2022-11-20T10:42:48;23.40;;;11.82;;
20511;SDS011;10414;52.074;5.126;2022-11-20T10:45:27;24.90;;;11.90;;
20511;SDS011;10414;52.074;5.126;2022-11-20T10:48:07;27.13;;;13.32;;
20511;SDS011;10414;52.074;5.126;2022-11-20T10:50:40;24.33;;;12.13;;
20511;SDS011;10414;52.074;5.126;2022-11-20T10:53:17;24.83;;;12.30;;
20511;SDS011;10414;52.074;5.126;2022-11-20T10:55:53;22.63;;;12.05;;
20511;SDS011;10414;52.074;5.126;2022-11-20T10:58:29;29.73;;;13.13;;
20511;SDS011;10414;52.074;5.126;2022-11-20T11:01:06;23.23;;;12.07;;
20511;SDS011;10414;52.074;5.126;2022-11-20T11:03:40;23.85;;;12.30;;
20511;SDS011;10414;52.074;5.126;2022-11-20T11:06:10;30.17;;;12.98;;
20511;SDS011;10414;52.074;5.126;2022-11-20T11:08:45;30.52;;;13.35;;
20511;SDS011;10414;52.074;5.126;2022-11-20T11:11:18;27.90;;;12.40;;
20511;SDS011;10414;52.074;5.126;2022-11-20T11:13:47;27.00;;;13.07;;
20511;SDS011;10414;52.074;5.126;2022-11-20T11:16:23;25.60;;;12.45;;
20511;SDS011;10414;52.074;5.126;2022-11-20T11:19:02;25.67;;;12.80;;
20511;SDS011;10414;52.074;5.126;2022-11-20T11:21:30;29.75;;;13.48;;
20511;SDS011;10414;52.074;5.126;2022-11-20T11:23:58;32.20;;;14.57;;
20511;SDS011;10414;52.074;5.126;2022-11-20T11:26:26;30.27;;;14.10;;
20511;SDS011;10414;52.074;5.126;2022-11-20T11:28:56;30.73;;;14.47;;
20511;SDS011;10414;52.074;5.126;2022-11-20T11:31:26;33.45;;;14.25;;
20511;SDS011;10414;52.074;5.126;2022-11-20T11:34:03;34.47;;;15.43;;
20511;SDS011;10414;52.074;5.126;2022-11-20T11:36:32;34.65;;;16.35;;
20511;SDS011;10414;52.074;5.126;2022-11-20T11:39:00;32.00;;;15.10;;
20511;SDS011;10414;52.074;5.126;2022-11-20T11:41:33;33.78;;;14.27;;
20511;SDS011;10414;52.074;5.126;2022-11-20T11:44:01;33.03;;;15.80;;
20511;SDS011;10414;52.074;5.126;2022-11-20T11:47:01;33.03;;;14.40;;
20511;SDS011;10414;52.074;5.126;2022-11-20T11:49:29;37.70;;;16.13;;
20511;SDS011;10414;52.074;5.126;2022-11-20T11:51:59;32.65;;;15.55;;
20511;SDS011;10414;52.074;5.126;2022-11-20T11:54:30;32.15;;;14.70;;
20511;SDS011;10414;52.074;5.126;2022-11-20T11:57:05;35.08;;;14.85;;
20511;SDS011;10414;52.074;5.126;2022-11-20T11:59:41;37.78;;;17.20;;
20511;SDS011;10414;52.074;5.126;2022-11-20T12:02:23;33.65;;;14.52;;
20511;SDS011;10414;52.074;5.126;2022-11-20T12:04:57;38.17;;;16.77;;
20511;SDS011;10414;52.074;5.126;2022-11-20T12:07:35;42.20;;;18.40;;
20511;SDS011;10414;52.074;5.126;2022-11-20T12:10:10;37.05;;;15.75;;
20511;SDS011;10414;52.074;5.126;2022-11-20T12:12:46;35.08;;;15.73;;
20511;SDS011;10414;52.074;5.126;2022-11-20T12:15:20;39.03;;;16.45;;
20511;SDS011;10414;52.074;5.126;2022-11-20T12:17:53;35.45;;;16.63;;
20511;SDS011;10414;52.074;5.126;2022-11-20T12:20:22;40.15;;;18.80;;
20511;SDS011;10414;52.074;5.126;2022-11-20T12:22:54;43.10;;;17.00;;
20511;SDS011;10414;52.074;5.126;2022-11-20T12:25:28;35.60;;;15.90;;
20511;SDS011;10414;52.074;5.126;2022-11-20T12:28:13;43.03;;;16.92;;
20511;SDS011;10414;52.074;5.126;2022-11-20T12:30:58;43.33;;;16.95;;
20511;SDS011;10414;52.074;5.126;2022-11-20T12:33:45;44.08;;;18.55;;
20511;SDS011;10414;52.074;5.126;2022-11-20T12:36:24;45.13;;;18.63;;
20511;SDS011;10414;52.074;5.126;2022-11-20T12:41:59;39.90;;;17.50;;
20511;SDS011;10414;52.074;5.126;2022-11-20T12:48:22;41.05;;;17.00;;
20511;SDS011;10414;52.074;5.126;2022-11-20T12:51:06;42.33;;;17.10;;
20511;SDS011;10414;52.074;5.126;2022-11-20T12:53:49;46.17;;;18.42;;
20511;SDS011;10414;52.074;5.126;2022-11-20T12:56:30;48.30;;;18.65;;
20511;SDS011;10414;52.074;5.126;2022-11-20T12:59:10;40.83;;;16.70;;
20511;SDS011;10414;52.074;5.126;2022-11-20T13:01:57;37.83;;;16.10;;
20511;SDS011;10414;52.074;5.126;2022-11-20T13:07:19;36.75;;;14.60;;
20511;SDS011;10414;52.074;5.126;2022-11-20T13:09:47;37.30;;;15.35;;
20511;SDS011;10414;52.074;5.126;2022-11-20T13:12:17;45.97;;;18.33;;
20511;SDS011;10414;52.074;5.126;2022-11-20T13:14:52;43.53;;;17.42;;
20511;SDS011;10414;52.074;5.126;2022-11-20T13:17:27;35.38;;;16.08;;
20511;SDS011;10414;52.074;5.126;2022-11-20T13:20:00;40.25;;;16.77;;
20511;SDS011;10414;52.074;5.126;2022-11-20T13:22:41;41.63;;;17.85;;
20511;SDS011;10414;52.074;5.126;2022-11-20T13:25:21;41.97;;;18.33;;
20511;SDS011;10414;52.074;5.126;2022-11-20T13:27:50;39.67;;;17.88;;
20511;SDS011;10414;52.074;5.126;2022-11-20T13:32:49;39.22;;;17.33;;
20511;SDS011;10414;52.074;5.126;2022-11-20T13:35:26;44.63;;;16.70;;
20511;SDS011;10414;52.074;5.126;2022-11-20T13:38:06;39.80;;;17.75;;
20511;SDS011;10414;52.074;5.126;2022-11-20T13:40:36;44.45;;;18.55;;
20511;SDS011;10414;52.074;5.126;2022-11-20T13:43:08;47.17;;;18.70;;
20511;SDS011;10414;52.074;5.126;2022-11-20T13:45:42;45.50;;;19.10;;
20511;SDS011;10414;52.074;5.126;2022-11-20T13:48:20;42.55;;;19.15;;
20511;SDS011;10414;52.074;5.126;2022-11-20T13:50:54;44.30;;;19.20;;
20511;SDS011;10414;52.074;5.126;2022-11-20T13:57:08;46.92;;;19.17;;
20511;SDS011;10414;52.074;5.126;2022-11-20T13:59:52;44.70;;;19.55;;
20511;SDS011;10414;52.074;5.126;2022-11-20T14:02:25;48.25;;;18.70;;
20511;SDS011;10414;52.074;5.126;2022-11-20T14:04:54;44.47;;;18.92;;
20511;SDS011;10414;52.074;5.126;2022-11-20T14:07:27;45.65;;;20.02;;
20511;SDS011;10414;52.074;5.126;2022-11-20T14:10:03;45.92;;;19.25;;
20511;SDS011;10414;52.074;5.126;2022-11-20T14:12:31;46.22;;;18.13;;
20511;SDS011;10414;52.074;5.126;2022-11-20T14:15:01;47.33;;;20.77;;
20511;SDS011;10414;52.074;5.126;2022-11-20T14:17:30;46.85;;;19.42;;
20511;SDS011;10414;52.074;5.126;2022-11-20T14:20:02;47.10;;;17.20;;
20511;SDS011;10414;52.074;5.126;2022-11-20T14:22:32;47.17;;;19.02;;
20511;SDS011;10414;52.074;5.126;2022-11-20T14:25:05;48.45;;;19.27;;
20511;SDS011;10414;52.074;5.126;2022-11-20T14:27:34;47.17;;;18.38;;
20511;SDS011;10414;52.074;5.126;2022-11-20T14:30:03;48.38;;;20.05;;
20511;SDS011;10414;52.074;5.126;2022-11-20T14:32:30;53.22;;;20.85;;
20511;SDS011;10414;52.074;5.126;2022-11-20T14:35:02;54.70;;;19.80;;
20511;SDS011;10414;52.074;5.126;2022-11-20T14:37:36;52.55;;;21.92;;
20511;SDS011;10414;52.074;5.126;2022-11-20T14:40:20;50.60;;;21.13;;
20511;SDS011;10414;52.074;5.126;2022-11-20T14:42:49;48.03;;;19.52;;
20511;SDS011;10414;52.074;5.126;2022-11-20T14:45:16;46.25;;;20.38;;
20511;SDS011;10414;52.074;5.126;2022-11-20T14:47:44;53.13;;;20.45;;
20511;SDS011;10414;52.074;5.126;2022-11-20T14:50:12;52.33;;;20.48;;
20511;SDS011;10414;52.074;5.126;2022-11-20T14:52:49;50.90;;;20.17;;
20511;SDS011;10414;52.074;5.126;2022-11-20T14:55:26;54.78;;;21.50;;
20511;SDS011;10414;52.074;5.126;2022-11-20T14:57:55;50.78;;;20.48;;
20511;SDS011;10414;52.074;5.126;2022-11-20T15:00:23;55.60;;;20.73;;
20511;SDS011;10414;52.074;5.126;2022-11-20T15:02:51;51.88;;;20.75;;
20511;SDS011;10414;52.074;5.126;2022-11-20T15:05:19;51.92;;;19.40;;
20511;SDS011;10414;52.074;5.126;2022-11-20T15:07:51;55.17;;;21.23;;
20511;SDS011;10414;52.074;5.126;2022-11-20T15:10:33;50.92;;;19.30;;
20511;SDS011;10414;52.074;5.126;2022-11-20T15:13:00;53.55;;;19.85;;
20511;SDS011;10414;52.074;5.126;2022-11-20T15:15:29;51.55;;;18.85;;
20511;SDS011;10414;52.074;5.126;2022-11-20T15:17:58;57.90;;;21.43;;
20511;SDS011;10414;52.074;5.126;2022-11-20T15:20:27;54.90;;;21.50;;
20511;SDS011;10414;52.074;5.126;2022-11-20T15:23:00;56.97;;;21.67;;